sensor_id;sensor_type;location;lat;lon;timestamp;pressure;altitude;pressure_sealevel;temperature;humidity
59608;BME280;45426;44.726;10.390;2023-05-12T00:00:49;100214.16;;;14.07;100.00
59608;BME280;45426;44.726;10.390;2023-05-12T00:03:15;100215.44;;;14.13;100.00
59608;BME280;45426;44.726;10.390;2023-05-12T00:05:40;100212.78;;;13.78;100.00
59608;BME280;45426;44.726;10.390;2023-05-12T00:08:06;100218.66;;;14.19;100.00
59608;BME280;45426;44.726;10.390;2023-05-12T00:10:31;100216.97;;;14.11;100.00
59608;BME280;45426;44.726;10.390;2023-05-12T00:12:59;100195.34;;;14.91;100.00
59608;BME280;45426;44.726;10.390;2023-05-12T00:15:25;100204.44;;;14.10;100.00
59608;BME280;45426;44.726;10.390;2023-05-12T00:17:51;100191.56;;;14.53;100.00
59608;BME280;45426;44.726;10.390;2023-05-12T00:20:17;100199.31;;;14.28;100.00
59608;BME280;45426;44.726;10.390;2023-05-12T00:22:42;100192.47;;;14.57;100.00
59608;BME280;45426;44.726;10.390;2023-05-12T00:25:09;100199.09;;;13.94;100.00
59608;BME280;45426;44.726;10.390;2023-05-12T00:27:34;100188.03;;;14.72;100.00
59608;BME280;45426;44.726;10.390;2023-05-12T00:30:00;100172.75;;;14.71;100.00
59608;BME280;45426;44.726;10.390;2023-05-12T00:32:25;100175.91;;;15.00;100.00
59608;BME280;45426;44.726;10.390;2023-05-12T00:34:51;100180.34;;;14.35;100.00
59608;BME280;45426;44.726;10.390;2023-05-12T00:37:19;100182.00;;;14.20;100.00
59608;BME280;45426;44.726;10.390;2023-05-12T00:39:44;100176.38;;;14.32;100.00
59608;BME280;45426;44.726;10.390;2023-05-12T00:42:11;100176.09;;;14.61;100.00
59608;BME280;45426;44.726;10.390;2023-05-12T00:44:36;100174.66;;;14.93;100.00
59608;BME280;45426;44.726;10.390;2023-05-12T00:47:04;100169.88;;;15.13;100.00
59608;BME280;45426;44.726;10.390;2023-05-12T00:49:30;100178.38;;;14.12;100.00
59608;BME280;45426;44.726;10.390;2023-05-12T00:51:57;100187.00;;;14.14;100.00
59608;BME280;45426;44.726;10.390;2023-05-12T00:54:25;100192.66;;;14.06;100.00
59608;BME280;45426;44.726;10.390;2023-05-12T00:56:50;100195.63;;;13.77;100.00
59608;BME280;45426;44.726;10.390;2023-05-12T00:59:16;100201.53;;;13.60;100.00
59608;BME280;45426;44.726;10.390;2023-05-12T01:01:41;100205.97;;;13.49;100.00
59608;BME280;45426;44.726;10.390;2023-05-12T01:04:07;100208.16;;;13.78;100.00
59608;BME280;45426;44.726;10.390;2023-05-12T01:06:48;100203.50;;;13.63;100.00
59608;BME280;45426;44.726;10.390;2023-05-12T01:09:17;100198.50;;;13.65;100.00
59608;BME280;45426;44.726;10.390;2023-05-12T01:11:43;100202.81;;;13.86;100.00
59608;BME280;45426;44.726;10.390;2023-05-12T01:14:08;100184.81;;;14.47;100.00
59608;BME280;45426;44.726;10.390;2023-05-12T01:16:35;100177.81;;;14.69;100.00
59608;BME280;45426;44.726;10.390;2023-05-12T01:19:08;100170.44;;;15.00;100.00
59608;BME280;45426;44.726;10.390;2023-05-12T01:21:39;100171.66;;;14.75;100.00
59608;BME280;45426;44.726;10.390;2023-05-12T01:24:06;100164.84;;;14.89;100.00
59608;BME280;45426;44.726;10.390;2023-05-12T01:26:32;100177.94;;;14.10;100.00
59608;BME280;45426;44.726;10.390;2023-05-12T01:29:01;100174.06;;;13.92;100.00
59608;BME280;45426;44.726;10.390;2023-05-12T01:31:29;100170.41;;;13.29;100.00
59608;BME280;45426;44.726;10.390;2023-05-12T01:33:54;100170.56;;;13.17;100.00
59608;BME280;45426;44.726;10.390;2023-05-12T01:36:20;100181.31;;;13.65;100.00
59608;BME280;45426;44.726;10.390;2023-05-12T01:38:46;100184.31;;;13.24;100.00
59608;BME280;45426;44.726;10.390;2023-05-12T01:41:14;100181.31;;;13.65;100.00
59608;BME280;45426;44.726;10.390;2023-05-12T01:43:39;100185.69;;;13.30;100.00
59608;BME280;45426;44.726;10.390;2023-05-12T01:46:05;100170.72;;;14.22;100.00
59608;BME280;45426;44.726;10.390;2023-05-12T01:48:30;100165.56;;;14.16;100.00
59608;BME280;45426;44.726;10.390;2023-05-12T01:50:58;100176.00;;;13.72;100.00
59608;BME280;45426;44.726;10.390;2023-05-12T01:53:24;100179.25;;;13.77;100.00
59608;BME280;45426;44.726;10.390;2023-05-12T01:55:50;100187.69;;;13.33;100.00
59608;BME280;45426;44.726;10.390;2023-05-12T01:58:15;100180.09;;;13.43;100.00
59608;BME280;45426;44.726;10.390;2023-05-12T02:00:41;100182.28;;;13.92;100.00
59608;BME280;45426;44.726;10.390;2023-05-12T02:03:07;100173.13;;;13.65;100.00
59608;BME280;45426;44.726;10.390;2023-05-12T02:05:32;100182.81;;;13.43;100.00
59608;BME280;45426;44.726;10.390;2023-05-12T02:07:58;100182.00;;;13.58;100.00
59608;BME280;45426;44.726;10.390;2023-05-12T02:10:23;100175.97;;;13.88;100.00
59608;BME280;45426;44.726;10.390;2023-05-12T02:12:48;100159.47;;;14.27;100.00
59608;BME280;45426;44.726;10.390;2023-05-12T02:15:14;100170.75;;;14.02;100.00
59608;BME280;45426;44.726;10.390;2023-05-12T02:17:39;100174.75;;;14.08;100.00
59608;BME280;45426;44.726;10.390;2023-05-12T02:20:05;100159.00;;;14.21;100.00
59608;BME280;45426;44.726;10.390;2023-05-12T02:22:31;100153.78;;;14.12;100.00
59608;BME280;45426;44.726;10.390;2023-05-12T02:24:56;100157.69;;;13.72;100.00
59608;BME280;45426;44.726;10.390;2023-05-12T02:27:22;100161.38;;;13.25;100.00
59608;BME280;45426;44.726;10.390;2023-05-12T02:29:50;100166.66;;;13.53;100.00
59608;BME280;45426;44.726;10.390;2023-05-12T02:32:15;100149.66;;;14.22;100.00
59608;BME280;45426;44.726;10.390;2023-05-12T02:34:40;100158.91;;;14.17;100.00
59608;BME280;45426;44.726;10.390;2023-05-12T02:37:06;100144.38;;;14.33;100.00
59608;BME280;45426;44.726;10.390;2023-05-12T02:39:34;100162.97;;;14.04;100.00
59608;BME280;45426;44.726;10.390;2023-05-12T02:41:59;100159.81;;;14.22;100.00
59608;BME280;45426;44.726;10.390;2023-05-12T02:44:27;100164.00;;;14.39;100.00
59608;BME280;45426;44.726;10.390;2023-05-12T02:46:53;100162.16;;;14.23;100.00
59608;BME280;45426;44.726;10.390;2023-05-12T02:49:18;100163.50;;;14.33;100.00
59608;BME280;45426;44.726;10.390;2023-05-12T02:51:44;100156.50;;;14.12;100.00
59608;BME280;45426;44.726;10.390;2023-05-12T02:54:09;100148.25;;;14.32;100.00
59608;BME280;45426;44.726;10.390;2023-05-12T02:56:35;100152.03;;;14.24;100.00
59608;BME280;45426;44.726;10.390;2023-05-12T02:59:00;100145.22;;;14.37;100.00
59608;BME280;45426;44.726;10.390;2023-05-12T03:01:26;100151.19;;;14.43;100.00
59608;BME280;45426;44.726;10.390;2023-05-12T03:03:51;100151.47;;;14.37;100.00
59608;BME280;45426;44.726;10.390;2023-05-12T03:06:17;100155.41;;;14.17;100.00
59608;BME280;45426;44.726;10.390;2023-05-12T03:08:42;100149.81;;;14.10;100.00
59608;BME280;45426;44.726;10.390;2023-05-12T03:11:08;100144.59;;;14.01;100.00
59608;BME280;45426;44.726;10.390;2023-05-12T03:13:33;100153.22;;;14.03;100.00
59608;BME280;45426;44.726;10.390;2023-05-12T03:15:59;100144.59;;;14.01;100.00
59608;BME280;45426;44.726;10.390;2023-05-12T03:18:26;100147.69;;;14.00;100.00
59608;BME280;45426;44.726;10.390;2023-05-12T03:20:52;100148.53;;;14.04;100.00
59608;BME280;45426;44.726;10.390;2023-05-12T03:23:18;100147.75;;;14.03;100.00
59608;BME280;45426;44.726;10.390;2023-05-12T03:25:43;100166.63;;;13.69;100.00
59608;BME280;45426;44.726;10.390;2023-05-12T03:28:09;100164.00;;;13.96;100.00
59608;BME280;45426;44.726;10.390;2023-05-12T03:30:37;100172.56;;;13.20;100.00
59608;BME280;45426;44.726;10.390;2023-05-12T03:33:02;100164.50;;;13.82;100.00
59608;BME280;45426;44.726;10.390;2023-05-12T03:35:28;100168.41;;;13.81;100.00
59608;BME280;45426;44.726;10.390;2023-05-12T03:37:55;100166.94;;;13.87;100.00
59608;BME280;45426;44.726;10.390;2023-05-12T03:40:20;100164.06;;;13.80;100.00
59608;BME280;45426;44.726;10.390;2023-05-12T03:42:46;100153.72;;;13.89;100.00
59608;BME280;45426;44.726;10.390;2023-05-12T03:45:11;100167.94;;;13.40;100.00
59608;BME280;45426;44.726;10.390;2023-05-12T03:47:37;100157.41;;;13.77;100.00
59608;BME280;45426;44.726;10.390;2023-05-12T03:50:07;100149.72;;;13.83;100.00
59608;BME280;45426;44.726;10.390;2023-05-12T03:52:33;100153.81;;;13.73;100.00
59608;BME280;45426;44.726;10.390;2023-05-12T03:54:58;100159.06;;;12.92;100.00
59608;BME280;45426;44.726;10.390;2023-05-12T03:57:24;100143.97;;;13.69;100.00
59608;BME280;45426;44.726;10.390;2023-05-12T03:59:49;100155.06;;;13.05;100.00
59608;BME280;45426;44.726;10.390;2023-05-12T04:02:15;100158.13;;;12.68;100.00
59608;BME280;45426;44.726;10.390;2023-05-12T04:04:40;100160.56;;;13.40;100.00
59608;BME280;45426;44.726;10.390;2023-05-12T04:07:06;100152.22;;;13.72;100.00
59608;BME280;45426;44.726;10.390;2023-05-12T04:09:34;100153.03;;;13.73;100.00
59608;BME280;45426;44.726;10.390;2023-05-12T04:12:25;100150.34;;;13.76;100.00
59608;BME280;45426;44.726;10.390;2023-05-12T04:15:20;100148.38;;;13.73;100.00
59608;BME280;45426;44.726;10.390;2023-05-12T04:17:59;100146.34;;;13.70;100.00
59608;BME280;45426;44.726;10.390;2023-05-12T04:20:43;100162.53;;;11.97;100.00
59608;BME280;45426;44.726;10.390;2023-05-12T04:23:27;100173.56;;;11.60;100.00
59608;BME280;45426;44.726;10.390;2023-05-12T04:25:53;100174.69;;;12.15;100.00
59608;BME280;45426;44.726;10.390;2023-05-12T04:28:18;100178.19;;;11.88;100.00
59608;BME280;45426;44.726;10.390;2023-05-12T04:30:44;100177.63;;;11.94;100.00
59608;BME280;45426;44.726;10.390;2023-05-12T04:33:10;100172.69;;;12.28;100.00
59608;BME280;45426;44.726;10.390;2023-05-12T04:35:35;100172.19;;;13.21;100.00
59608;BME280;45426;44.726;10.390;2023-05-12T04:38:01;100166.66;;;13.53;100.00
59608;BME280;45426;44.726;10.390;2023-05-12T04:40:29;100163.47;;;13.67;100.00
59608;BME280;45426;44.726;10.390;2023-05-12T04:43:19;100166.38;;;13.78;100.00
59608;BME280;45426;44.726;10.390;2023-05-12T04:45:44;100165.31;;;13.63;100.00
59608;BME280;45426;44.726;10.390;2023-05-12T04:48:10;100178.66;;;12.97;100.00
59608;BME280;45426;44.726;10.390;2023-05-12T04:50:35;100176.88;;;13.05;100.00
59608;BME280;45426;44.726;10.390;2023-05-12T04:53:01;100180.00;;;12.72;100.00
59608;BME280;45426;44.726;10.390;2023-05-12T04:55:26;100175.72;;;12.71;100.00
59608;BME280;45426;44.726;10.390;2023-05-12T04:57:51;100184.94;;;12.50;100.00
59608;BME280;45426;44.726;10.390;2023-05-12T05:00:17;100177.56;;;12.67;100.00
59608;BME280;45426;44.726;10.390;2023-05-12T05:02:43;100182.22;;;12.82;100.00
59608;BME280;45426;44.726;10.390;2023-05-12T05:05:08;100178.09;;;13.24;100.00
59608;BME280;45426;44.726;10.390;2023-05-12T05:07:34;100181.09;;;13.18;100.00
59608;BME280;45426;44.726;10.390;2023-05-12T05:09:59;100177.94;;;13.91;100.00
59608;BME280;45426;44.726;10.390;2023-05-12T05:12:25;100173.06;;;14.00;100.00
59608;BME280;45426;44.726;10.390;2023-05-12T05:14:50;100178.84;;;14.18;100.00
59608;BME280;45426;44.726;10.390;2023-05-12T05:17:16;100172.19;;;13.96;100.00
59608;BME280;45426;44.726;10.390;2023-05-12T05:19:41;100188.00;;;13.48;100.00
59608;BME280;45426;44.726;10.390;2023-05-12T05:22:07;100181.25;;;13.61;100.00
59608;BME280;45426;44.726;10.390;2023-05-12T05:24:32;100184.81;;;14.04;100.00
59608;BME280;45426;44.726;10.390;2023-05-12T05:26:58;100168.41;;;14.47;100.00
59608;BME280;45426;44.726;10.390;2023-05-12T05:29:23;100171.16;;;14.47;100.00
59608;BME280;45426;44.726;10.390;2023-05-12T05:31:50;100169.13;;;14.63;100.00
59608;BME280;45426;44.726;10.390;2023-05-12T05:34:16;100168.75;;;14.65;100.00
59608;BME280;45426;44.726;10.390;2023-05-12T05:36:42;100166.44;;;15.47;100.00
59608;BME280;45426;44.726;10.390;2023-05-12T05:39:08;100160.50;;;16.09;100.00
59608;BME280;45426;44.726;10.390;2023-05-12T05:41:34;100161.59;;;16.42;100.00
59608;BME280;45426;44.726;10.390;2023-05-12T05:44:00;100162.47;;;16.53;100.00
59608;BME280;45426;44.726;10.390;2023-05-12T05:46:25;100173.63;;;16.30;100.00
59608;BME280;45426;44.726;10.390;2023-05-12T05:48:52;100161.75;;;16.60;100.00
59608;BME280;45426;44.726;10.390;2023-05-12T05:51:17;100176.69;;;16.66;100.00
59608;BME280;45426;44.726;10.390;2023-05-12T05:53:43;100178.59;;;17.06;100.00
59608;BME280;45426;44.726;10.390;2023-05-12T05:56:08;100181.59;;;17.53;100.00
59608;BME280;45426;44.726;10.390;2023-05-12T05:58:34;100187.78;;;17.39;100.00
59608;BME280;45426;44.726;10.390;2023-05-12T06:00:59;100187.69;;;18.06;100.00
59608;BME280;45426;44.726;10.390;2023-05-12T06:03:25;100189.63;;;17.91;100.00
59608;BME280;45426;44.726;10.390;2023-05-12T06:05:51;100183.34;;;17.97;100.00
59608;BME280;45426;44.726;10.390;2023-05-12T06:08:17;100188.97;;;17.38;100.00
59608;BME280;45426;44.726;10.390;2023-05-12T06:10:43;100198.78;;;17.43;100.00
59608;BME280;45426;44.726;10.390;2023-05-12T06:13:08;100201.09;;;17.34;100.00
59608;BME280;45426;44.726;10.390;2023-05-12T06:15:34;100209.06;;;16.46;100.00
59608;BME280;45426;44.726;10.390;2023-05-12T06:18:00;100213.69;;;16.04;100.00
59608;BME280;45426;44.726;10.390;2023-05-12T06:20:25;100206.34;;;16.98;100.00
59608;BME280;45426;44.726;10.390;2023-05-12T06:22:51;100212.16;;;16.85;100.00
59608;BME280;45426;44.726;10.390;2023-05-12T06:25:16;100212.91;;;18.29;100.00
59608;BME280;45426;44.726;10.390;2023-05-12T06:27:42;100197.25;;;17.45;100.00
59608;BME280;45426;44.726;10.390;2023-05-12T06:30:11;100201.56;;;18.95;100.00
59608;BME280;45426;44.726;10.390;2023-05-12T06:32:36;100192.09;;;19.00;100.00
59608;BME280;45426;44.726;10.390;2023-05-12T06:35:02;100198.41;;;18.90;100.00
59608;BME280;45426;44.726;10.390;2023-05-12T06:37:27;100197.22;;;18.69;100.00
59608;BME280;45426;44.726;10.390;2023-05-12T06:39:53;100198.78;;;18.52;100.00
59608;BME280;45426;44.726;10.390;2023-05-12T06:42:18;100189.00;;;20.11;100.00
59608;BME280;45426;44.726;10.390;2023-05-12T06:44:44;100184.34;;;21.78;100.00
59608;BME280;45426;44.726;10.390;2023-05-12T06:47:13;100181.69;;;22.29;100.00
59608;BME280;45426;44.726;10.390;2023-05-12T06:49:38;100171.75;;;26.40;100.00
59608;BME280;45426;44.726;10.390;2023-05-12T06:52:06;100172.88;;;26.04;100.00
59608;BME280;45426;44.726;10.390;2023-05-12T06:54:32;100183.41;;;22.70;100.00
59608;BME280;45426;44.726;10.390;2023-05-12T06:56:57;100172.78;;;24.45;100.00
59608;BME280;45426;44.726;10.390;2023-05-12T06:59:23;100174.63;;;28.17;100.00
59608;BME280;45426;44.726;10.390;2023-05-12T07:01:49;100186.03;;;23.84;100.00
59608;BME280;45426;44.726;10.390;2023-05-12T07:04:17;100194.28;;;24.25;100.00
59608;BME280;45426;44.726;10.390;2023-05-12T07:06:43;100195.22;;;25.88;100.00
59608;BME280;45426;44.726;10.390;2023-05-12T07:09:11;100193.19;;;25.17;100.00
59608;BME280;45426;44.726;10.390;2023-05-12T07:11:36;100186.63;;;24.65;100.00
59608;BME280;45426;44.726;10.390;2023-05-12T07:14:02;100193.41;;;24.28;100.00
59608;BME280;45426;44.726;10.390;2023-05-12T07:16:27;100201.28;;;21.80;100.00
59608;BME280;45426;44.726;10.390;2023-05-12T07:18:53;100185.00;;;24.31;100.00
59608;BME280;45426;44.726;10.390;2023-05-12T07:21:18;100189.44;;;25.40;100.00
59608;BME280;45426;44.726;10.390;2023-05-12T07:23:50;100181.88;;;30.60;100.00
59608;BME280;45426;44.726;10.390;2023-05-12T07:26:15;100174.75;;;31.67;95.39
59608;BME280;45426;44.726;10.390;2023-05-12T07:28:48;100194.47;;;25.58;100.00
59608;BME280;45426;44.726;10.390;2023-05-12T07:31:14;100207.28;;;22.87;100.00
59608;BME280;45426;44.726;10.390;2023-05-12T07:33:40;100194.78;;;21.29;100.00
59608;BME280;45426;44.726;10.390;2023-05-12T07:36:07;100186.22;;;27.75;100.00
59608;BME280;45426;44.726;10.390;2023-05-12T07:38:37;100197.31;;;22.66;100.00
59608;BME280;45426;44.726;10.390;2023-05-12T07:41:05;100198.72;;;20.30;100.00
59608;BME280;45426;44.726;10.390;2023-05-12T07:43:35;100199.53;;;20.27;100.00
59608;BME280;45426;44.726;10.390;2023-05-12T07:46:09;100191.53;;;20.44;100.00
59608;BME280;45426;44.726;10.390;2023-05-12T07:48:35;100192.25;;;22.07;100.00
59608;BME280;45426;44.726;10.390;2023-05-12T07:51:05;100189.66;;;22.98;100.00
59608;BME280;45426;44.726;10.390;2023-05-12T07:53:32;100184.84;;;23.25;100.00
59608;BME280;45426;44.726;10.390;2023-05-12T07:55:57;100194.25;;;22.84;100.00
59608;BME280;45426;44.726;10.390;2023-05-12T07:58:23;100199.13;;;21.26;100.00
59608;BME280;45426;44.726;10.390;2023-05-12T08:00:48;100207.59;;;23.37;100.00
59608;BME280;45426;44.726;10.390;2023-05-12T08:03:14;100198.34;;;21.64;100.00
59608;BME280;45426;44.726;10.390;2023-05-12T08:05:41;100203.78;;;19.58;100.00
59608;BME280;45426;44.726;10.390;2023-05-12T08:08:06;100188.44;;;21.97;100.00
59608;BME280;45426;44.726;10.390;2023-05-12T08:10:36;100192.00;;;21.98;100.00
59608;BME280;45426;44.726;10.390;2023-05-12T08:13:02;100190.25;;;22.38;100.00
59608;BME280;45426;44.726;10.390;2023-05-12T08:15:27;100197.84;;;23.29;100.00
59608;BME280;45426;44.726;10.390;2023-05-12T08:17:54;100197.41;;;21.02;100.00
59608;BME280;45426;44.726;10.390;2023-05-12T08:20:21;100202.22;;;22.32;100.00
59608;BME280;45426;44.726;10.390;2023-05-12T08:22:47;100197.50;;;20.91;100.00
59608;BME280;45426;44.726;10.390;2023-05-12T08:25:15;100206.13;;;19.67;100.00
59608;BME280;45426;44.726;10.390;2023-05-12T08:27:40;100204.66;;;18.79;100.00
59608;BME280;45426;44.726;10.390;2023-05-12T08:30:06;100202.13;;;21.01;100.00
59608;BME280;45426;44.726;10.390;2023-05-12T08:32:56;100197.03;;;21.38;100.00
59608;BME280;45426;44.726;10.390;2023-05-12T08:35:24;100191.34;;;21.56;100.00
59608;BME280;45426;44.726;10.390;2023-05-12T08:37:50;100198.50;;;20.59;100.00
59608;BME280;45426;44.726;10.390;2023-05-12T08:40:20;100204.09;;;19.85;100.00
59608;BME280;45426;44.726;10.390;2023-05-12T08:42:51;100207.84;;;18.96;100.00
59608;BME280;45426;44.726;10.390;2023-05-12T08:45:22;100197.47;;;19.75;100.00
59608;BME280;45426;44.726;10.390;2023-05-12T08:47:48;100198.75;;;20.23;100.00
59608;BME280;45426;44.726;10.390;2023-05-12T08:50:16;100206.84;;;21.04;100.00
59608;BME280;45426;44.726;10.390;2023-05-12T08:52:43;100203.06;;;21.29;100.00
59608;BME280;45426;44.726;10.390;2023-05-12T08:55:11;100206.34;;;20.71;100.00
59608;BME280;45426;44.726;10.390;2023-05-12T08:57:40;100211.28;;;21.36;100.00
59608;BME280;45426;44.726;10.390;2023-05-12T09:00:12;100215.53;;;21.79;100.00
59608;BME280;45426;44.726;10.390;2023-05-12T09:02:41;100210.28;;;21.57;100.00
59608;BME280;45426;44.726;10.390;2023-05-12T09:05:12;100206.09;;;21.76;100.00
59608;BME280;45426;44.726;10.390;2023-05-12T09:07:42;100210.06;;;21.37;100.00
59608;BME280;45426;44.726;10.390;2023-05-12T09:10:15;100209.56;;;21.49;100.00
59608;BME280;45426;44.726;10.390;2023-05-12T09:12:45;100208.03;;;21.45;100.00
59608;BME280;45426;44.726;10.390;2023-05-12T09:15:32;100214.75;;;19.69;100.00
59608;BME280;45426;44.726;10.390;2023-05-12T09:18:01;100213.72;;;20.29;100.00
59608;BME280;45426;44.726;10.390;2023-05-12T09:20:27;100216.94;;;21.22;100.00
59608;BME280;45426;44.726;10.390;2023-05-12T09:22:53;100218.69;;;19.75;100.00
59608;BME280;45426;44.726;10.390;2023-05-12T09:25:21;100237.69;;;19.26;100.00
59608;BME280;45426;44.726;10.390;2023-05-12T09:27:48;100221.91;;;19.48;100.00
59608;BME280;45426;44.726;10.390;2023-05-12T09:30:14;100229.88;;;19.10;100.00
59608;BME280;45426;44.726;10.390;2023-05-12T09:32:40;100233.31;;;19.50;100.00
59608;BME280;45426;44.726;10.390;2023-05-12T09:35:08;100231.41;;;18.79;100.00
59608;BME280;45426;44.726;10.390;2023-05-12T09:37:38;100218.00;;;19.46;100.00
59608;BME280;45426;44.726;10.390;2023-05-12T09:40:08;100221.63;;;20.24;100.00
59608;BME280;45426;44.726;10.390;2023-05-12T09:42:35;100219.53;;;19.50;100.00
59608;BME280;45426;44.726;10.390;2023-05-12T09:45:05;100224.34;;;19.21;100.00
59608;BME280;45426;44.726;10.390;2023-05-12T09:47:35;100222.75;;;18.59;100.00
59608;BME280;45426;44.726;10.390;2023-05-12T09:50:01;100212.00;;;19.76;100.00
59608;BME280;45426;44.726;10.390;2023-05-12T09:52:29;100215.00;;;20.10;100.00
59608;BME280;45426;44.726;10.390;2023-05-12T09:55:04;100224.78;;;20.26;100.00
59608;BME280;45426;44.726;10.390;2023-05-12T09:57:34;100225.22;;;20.17;100.00
59608;BME280;45426;44.726;10.390;2023-05-12T10:00:02;100232.19;;;18.79;100.00
59608;BME280;45426;44.726;10.390;2023-05-12T10:02:31;100234.94;;;18.79;100.00
59608;BME280;45426;44.726;10.390;2023-05-12T10:05:05;100232.94;;;19.52;100.00
59608;BME280;45426;44.726;10.390;2023-05-12T10:07:33;100235.38;;;19.14;100.00
59608;BME280;45426;44.726;10.390;2023-05-12T10:10:01;100244.00;;;18.80;100.00
59608;BME280;45426;44.726;10.390;2023-05-12T10:12:29;100241.63;;;18.64;100.00
59608;BME280;45426;44.726;10.390;2023-05-12T10:15:02;100246.34;;;18.60;100.00
59608;BME280;45426;44.726;10.390;2023-05-12T10:17:28;100246.69;;;18.44;100.00
59608;BME280;45426;44.726;10.390;2023-05-12T10:19:55;100254.13;;;18.26;100.00
59608;BME280;45426;44.726;10.390;2023-05-12T10:22:22;100254.59;;;17.61;100.00
59608;BME280;45426;44.726;10.390;2023-05-12T10:24:49;100259.94;;;18.06;100.00
59608;BME280;45426;44.726;10.390;2023-05-12T10:27:18;100253.72;;;18.20;100.00
59608;BME280;45426;44.726;10.390;2023-05-12T10:29:44;100254.94;;;18.33;100.00
59608;BME280;45426;44.726;10.390;2023-05-12T10:32:11;100253.69;;;17.36;100.00
59608;BME280;45426;44.726;10.390;2023-05-12T10:34:36;100257.00;;;17.04;100.00
59608;BME280;45426;44.726;10.390;2023-05-12T10:37:08;100262.81;;;17.51;100.00
59608;BME280;45426;44.726;10.390;2023-05-12T10:39:35;100260.69;;;17.30;100.00
59608;BME280;45426;44.726;10.390;2023-05-12T10:42:06;100268.06;;;16.74;100.00
59608;BME280;45426;44.726;10.390;2023-05-12T10:44:33;100265.06;;;16.86;100.00
59608;BME280;45426;44.726;10.390;2023-05-12T10:47:11;100261.47;;;17.26;100.00
59608;BME280;45426;44.726;10.390;2023-05-12T10:49:40;100267.47;;;16.91;100.00
59608;BME280;45426;44.726;10.390;2023-05-12T10:52:07;100265.97;;;16.22;100.00
59608;BME280;45426;44.726;10.390;2023-05-12T10:54:43;100265.59;;;15.90;100.00
59608;BME280;45426;44.726;10.390;2023-05-12T10:57:14;100259.84;;;15.72;100.00
59608;BME280;45426;44.726;10.390;2023-05-12T10:59:47;100258.63;;;15.96;100.00
59608;BME280;45426;44.726;10.390;2023-05-12T11:02:21;100248.38;;;16.61;100.00
59608;BME280;45426;44.726;10.390;2023-05-12T11:05:01;100235.84;;;17.08;100.00
59608;BME280;45426;44.726;10.390;2023-05-12T11:07:33;100236.22;;;17.06;100.00
59608;BME280;45426;44.726;10.390;2023-05-12T11:10:03;100247.72;;;16.78;100.00
59608;BME280;45426;44.726;10.390;2023-05-12T11:12:30;100257.28;;;15.83;100.00
59608;BME280;45426;44.726;10.390;2023-05-12T11:15:00;100262.50;;;16.25;100.00
59608;BME280;45426;44.726;10.390;2023-05-12T11:17:26;100258.16;;;16.24;100.00
59608;BME280;45426;44.726;10.390;2023-05-12T11:19:52;100264.47;;;16.66;100.00
59608;BME280;45426;44.726;10.390;2023-05-12T11:22:20;100270.41;;;16.34;100.00
59608;BME280;45426;44.726;10.390;2023-05-12T11:24:46;100274.72;;;16.35;100.00
59608;BME280;45426;44.726;10.390;2023-05-12T11:27:14;100266.03;;;16.67;100.00
59608;BME280;45426;44.726;10.390;2023-05-12T11:29:41;100267.16;;;17.03;100.00
59608;BME280;45426;44.726;10.390;2023-05-12T11:32:10;100261.91;;;18.02;100.00
59608;BME280;45426;44.726;10.390;2023-05-12T11:34:37;100252.25;;;17.56;100.00
59608;BME280;45426;44.726;10.390;2023-05-12T11:37:03;100243.44;;;18.02;100.00
59608;BME280;45426;44.726;10.390;2023-05-12T11:39:32;100241.59;;;18.57;100.00
59608;BME280;45426;44.726;10.390;2023-05-12T11:42:02;100237.50;;;17.93;100.00
59608;BME280;45426;44.726;10.390;2023-05-12T11:44:31;100233.00;;;18.73;100.00
59608;BME280;45426;44.726;10.390;2023-05-12T11:47:18;100225.94;;;18.83;100.00
59608;BME280;45426;44.726;10.390;2023-05-12T11:49:52;100218.81;;;18.56;100.00
59608;BME280;45426;44.726;10.390;2023-05-12T11:52:20;100199.53;;;20.27;100.00
59608;BME280;45426;44.726;10.390;2023-05-12T11:54:58;100206.28;;;18.98;100.00
59608;BME280;45426;44.726;10.390;2023-05-12T11:57:32;100195.25;;;18.70;100.00
59608;BME280;45426;44.726;10.390;2023-05-12T12:00:01;100180.91;;;19.72;100.00
59608;BME280;45426;44.726;10.390;2023-05-12T12:02:27;100181.38;;;20.33;100.00
59608;BME280;45426;44.726;10.390;2023-05-12T12:05:03;100168.09;;;21.11;100.00
59608;BME280;45426;44.726;10.390;2023-05-12T12:07:33;100174.09;;;20.02;100.00
59608;BME280;45426;44.726;10.390;2023-05-12T12:10:15;100177.59;;;20.06;100.00
59608;BME280;45426;44.726;10.390;2023-05-12T12:12:41;100169.53;;;19.63;100.00
59608;BME280;45426;44.726;10.390;2023-05-12T12:15:08;100169.44;;;20.47;100.00
59608;BME280;45426;44.726;10.390;2023-05-12T12:17:34;100161.34;;;21.16;100.00
59608;BME280;45426;44.726;10.390;2023-05-12T12:19:59;100172.84;;;20.10;100.00
59608;BME280;45426;44.726;10.390;2023-05-12T12:22:25;100165.47;;;20.52;100.00
59608;BME280;45426;44.726;10.390;2023-05-12T12:24:51;100161.47;;;20.56;100.00
59608;BME280;45426;44.726;10.390;2023-05-12T12:27:16;100152.94;;;20.89;100.00
59608;BME280;45426;44.726;10.390;2023-05-12T12:29:42;100157.06;;;21.80;100.00
59608;BME280;45426;44.726;10.390;2023-05-12T12:32:07;100145.28;;;21.76;100.00